sensor_id;sensor_type;location;lat;lon;timestamp;P1;durP1;ratioP1;P2;durP2;ratioP2
4365;SDS011;2196;47.422;9.656;2022-07-05T00:01:17;1.70;;;1.07;;
4365;SDS011;2196;47.422;9.656;2022-07-05T00:03:43;1.23;;;1.23;;
4365;SDS011;2196;47.422;9.656;2022-07-05T00:06:10;2.67;;;1.27;;
4365;SDS011;2196;47.422;9.656;2022-07-05T00:08:38;1.13;;;1.13;;
4365;SDS011;2196;47.422;9.656;2022-07-05T00:11:05;2.57;;;1.67;;
4365;SDS011;2196;47.422;9.656;2022-07-05T00:13:32;1.30;;;1.30;;
4365;SDS011;2196;47.422;9.656;2022-07-05T00:15:59;1.40;;;1.13;;
4365;SDS011;2196;47.422;9.656;2022-07-05T00:18:27;1.83;;;1.73;;
4365;SDS011;2196;47.422;9.656;2022-07-05T00:20:54;1.40;;;1.30;;
4365;SDS011;2196;47.422;9.656;2022-07-05T00:23:21;2.47;;;1.53;;
4365;SDS011;2196;47.422;9.656;2022-07-05T00:25:48;1.03;;;1.03;;
4365;SDS011;2196;47.422;9.656;2022-07-05T00:28:15;1.07;;;1.07;;
4365;SDS011;2196;47.422;9.656;2022-07-05T00:30:42;2.00;;;1.40;;
4365;SDS011;2196;47.422;9.656;2022-07-05T00:33:09;0.80;;;0.80;;
4365;SDS011;2196;47.422;9.656;2022-07-05T00:35:38;2.27;;;1.30;;
4365;SDS011;2196;47.422;9.656;2022-07-05T00:38:04;1.30;;;1.20;;
4365;SDS011;2196;47.422;9.656;2022-07-05T00:40:32;1.80;;;1.07;;
4365;SDS011;2196;47.422;9.656;2022-07-05T00:42:59;2.53;;;1.10;;
4365;SDS011;2196;47.422;9.656;2022-07-05T00:45:26;1.47;;;1.10;;
4365;SDS011;2196;47.422;9.656;2022-07-05T00:47:53;2.57;;;1.67;;
4365;SDS011;2196;47.422;9.656;2022-07-05T00:50:20;3.33;;;1.60;;
4365;SDS011;2196;47.422;9.656;2022-07-05T00:52:48;1.23;;;1.17;;
4365;SDS011;2196;47.422;9.656;2022-07-05T00:55:18;3.23;;;1.73;;
4365;SDS011;2196;47.422;9.656;2022-07-05T00:57:45;1.37;;;1.30;;
4365;SDS011;2196;47.422;9.656;2022-07-05T01:00:12;1.60;;;1.17;;
4365;SDS011;2196;47.422;9.656;2022-07-05T01:02:39;1.60;;;1.30;;
4365;SDS011;2196;47.422;9.656;2022-07-05T01:05:06;3.57;;;1.60;;
4365;SDS011;2196;47.422;9.656;2022-07-05T01:07:34;4.20;;;2.10;;
4365;SDS011;2196;47.422;9.656;2022-07-05T01:10:03;3.50;;;1.40;;
4365;SDS011;2196;47.422;9.656;2022-07-05T01:12:30;1.57;;;1.47;;
4365;SDS011;2196;47.422;9.656;2022-07-05T01:14:57;1.73;;;1.63;;
4365;SDS011;2196;47.422;9.656;2022-07-05T01:17:25;1.17;;;1.17;;
4365;SDS011;2196;47.422;9.656;2022-07-05T01:19:54;3.70;;;1.93;;
4365;SDS011;2196;47.422;9.656;2022-07-05T01:22:23;5.60;;;1.60;;
4365;SDS011;2196;47.422;9.656;2022-07-05T01:24:53;7.50;;;3.00;;
4365;SDS011;2196;47.422;9.656;2022-07-05T01:27:20;4.80;;;1.67;;
4365;SDS011;2196;47.422;9.656;2022-07-05T01:29:48;5.37;;;1.87;;
4365;SDS011;2196;47.422;9.656;2022-07-05T01:32:15;3.17;;;1.53;;
4365;SDS011;2196;47.422;9.656;2022-07-05T01:34:42;5.83;;;2.00;;
4365;SDS011;2196;47.422;9.656;2022-07-05T01:37:09;1.97;;;1.87;;
4365;SDS011;2196;47.422;9.656;2022-07-05T01:39:37;5.90;;;2.23;;
4365;SDS011;2196;47.422;9.656;2022-07-05T01:42:06;1.80;;;1.70;;
4365;SDS011;2196;47.422;9.656;2022-07-05T01:44:33;1.27;;;1.27;;
4365;SDS011;2196;47.422;9.656;2022-07-05T01:47:03;6.00;;;2.13;;
4365;SDS011;2196;47.422;9.656;2022-07-05T01:49:34;1.47;;;1.40;;
4365;SDS011;2196;47.422;9.656;2022-07-05T01:52:08;1.37;;;1.20;;
4365;SDS011;2196;47.422;9.656;2022-07-05T01:54:36;3.37;;;1.50;;
4365;SDS011;2196;47.422;9.656;2022-07-05T01:57:04;3.53;;;1.70;;
4365;SDS011;2196;47.422;9.656;2022-07-05T01:59:33;1.37;;;1.30;;
4365;SDS011;2196;47.422;9.656;2022-07-05T02:02:00;2.07;;;1.30;;
4365;SDS011;2196;47.422;9.656;2022-07-05T02:04:28;1.67;;;1.50;;
4365;SDS011;2196;47.422;9.656;2022-07-05T02:06:55;4.47;;;1.27;;
4365;SDS011;2196;47.422;9.656;2022-07-05T02:09:22;1.40;;;1.30;;
4365;SDS011;2196;47.422;9.656;2022-07-05T02:11:49;1.60;;;1.50;;
4365;SDS011;2196;47.422;9.656;2022-07-05T02:14:19;1.00;;;0.87;;
4365;SDS011;2196;47.422;9.656;2022-07-05T02:16:46;2.37;;;1.30;;
4365;SDS011;2196;47.422;9.656;2022-07-05T02:19:13;2.37;;;1.87;;
4365;SDS011;2196;47.422;9.656;2022-07-05T02:21:40;2.07;;;1.20;;
4365;SDS011;2196;47.422;9.656;2022-07-05T02:24:07;1.50;;;1.40;;
4365;SDS011;2196;47.422;9.656;2022-07-05T02:26:34;2.37;;;1.30;;
4365;SDS011;2196;47.422;9.656;2022-07-05T02:29:02;2.97;;;1.40;;
4365;SDS011;2196;47.422;9.656;2022-07-05T02:31:32;1.77;;;1.67;;
4365;SDS011;2196;47.422;9.656;2022-07-05T02:33:59;3.03;;;2.67;;
4365;SDS011;2196;47.422;9.656;2022-07-05T02:36:26;3.17;;;2.23;;
4365;SDS011;2196;47.422;9.656;2022-07-05T02:38:53;2.03;;;1.93;;
4365;SDS011;2196;47.422;9.656;2022-07-05T02:41:20;2.70;;;1.80;;
4365;SDS011;2196;47.422;9.656;2022-07-05T02:43:47;3.43;;;2.27;;
4365;SDS011;2196;47.422;9.656;2022-07-05T02:46:14;2.40;;;2.30;;
4365;SDS011;2196;47.422;9.656;2022-07-05T02:48:43;2.30;;;1.77;;
4365;SDS011;2196;47.422;9.656;2022-07-05T02:51:10;3.70;;;1.50;;
4365;SDS011;2196;47.422;9.656;2022-07-05T02:53:37;1.70;;;1.60;;
4365;SDS011;2196;47.422;9.656;2022-07-05T02:56:04;2.50;;;1.63;;
4365;SDS011;2196;47.422;9.656;2022-07-05T02:58:31;3.13;;;2.23;;
4365;SDS011;2196;47.422;9.656;2022-07-05T03:00:58;3.03;;;1.37;;
4365;SDS011;2196;47.422;9.656;2022-07-05T03:03:25;2.63;;;1.53;;
4365;SDS011;2196;47.422;9.656;2022-07-05T03:05:54;3.17;;;1.70;;
4365;SDS011;2196;47.422;9.656;2022-07-05T03:08:21;1.60;;;1.50;;
4365;SDS011;2196;47.422;9.656;2022-07-05T03:10:48;3.57;;;1.67;;
4365;SDS011;2196;47.422;9.656;2022-07-05T03:13:15;2.40;;;1.63;;
4365;SDS011;2196;47.422;9.656;2022-07-05T03:15:42;1.40;;;1.13;;
4365;SDS011;2196;47.422;9.656;2022-07-05T03:18:09;4.40;;;2.23;;
4365;SDS011;2196;47.422;9.656;2022-07-05T03:20:36;1.80;;;1.53;;
4365;SDS011;2196;47.422;9.656;2022-07-05T03:23:04;1.80;;;1.70;;
4365;SDS011;2196;47.422;9.656;2022-07-05T03:25:31;1.77;;;1.67;;
4365;SDS011;2196;47.422;9.656;2022-07-05T03:27:58;2.20;;;1.50;;
4365;SDS011;2196;47.422;9.656;2022-07-05T03:30:25;1.67;;;1.57;;
4365;SDS011;2196;47.422;9.656;2022-07-05T03:32:52;1.10;;;1.10;;
4365;SDS011;2196;47.422;9.656;2022-07-05T03:35:19;1.63;;;1.53;;
4365;SDS011;2196;47.422;9.656;2022-07-05T03:37:46;2.93;;;1.50;;
4365;SDS011;2196;47.422;9.656;2022-07-05T03:40:15;4.83;;;2.20;;
4365;SDS011;2196;47.422;9.656;2022-07-05T03:42:42;2.37;;;1.23;;
4365;SDS011;2196;47.422;9.656;2022-07-05T03:45:09;1.97;;;1.60;;
4365;SDS011;2196;47.422;9.656;2022-07-05T03:47:36;2.47;;;1.70;;
4365;SDS011;2196;47.422;9.656;2022-07-05T03:50:04;2.30;;;2.17;;
4365;SDS011;2196;47.422;9.656;2022-07-05T03:52:31;2.60;;;1.67;;
4365;SDS011;2196;47.422;9.656;2022-07-05T03:54:58;4.20;;;1.80;;
4365;SDS011;2196;47.422;9.656;2022-07-05T03:57:27;2.17;;;2.07;;
4365;SDS011;2196;47.422;9.656;2022-07-05T03:59:54;2.00;;;1.70;;
4365;SDS011;2196;47.422;9.656;2022-07-05T04:02:21;2.47;;;2.37;;
4365;SDS011;2196;47.422;9.656;2022-07-05T04:04:48;3.93;;;1.80;;
4365;SDS011;2196;47.422;9.656;2022-07-05T04:07:15;2.57;;;2.03;;
4365;SDS011;2196;47.422;9.656;2022-07-05T04:09:42;1.40;;;1.30;;
4365;SDS011;2196;47.422;9.656;2022-07-05T04:12:09;3.00;;;2.60;;
4365;SDS011;2196;47.422;9.656;2022-07-05T04:14:37;2.50;;;1.87;;
4365;SDS011;2196;47.422;9.656;2022-07-05T04:17:04;2.77;;;1.70;;
4365;SDS011;2196;47.422;9.656;2022-07-05T04:19:31;1.83;;;1.73;;
4365;SDS011;2196;47.422;9.656;2022-07-05T04:21:58;3.00;;;1.97;;
4365;SDS011;2196;47.422;9.656;2022-07-05T04:24:26;2.30;;;2.20;;
4365;SDS011;2196;47.422;9.656;2022-07-05T04:26:53;5.70;;;5.40;;
4365;SDS011;2196;47.422;9.656;2022-07-05T04:29:20;3.83;;;3.73;;
4365;SDS011;2196;47.422;9.656;2022-07-05T04:31:48;2.50;;;2.33;;
4365;SDS011;2196;47.422;9.656;2022-07-05T04:34:16;5.67;;;3.00;;
4365;SDS011;2196;47.422;9.656;2022-07-05T04:36:43;5.67;;;2.30;;
4365;SDS011;2196;47.422;9.656;2022-07-05T04:39:10;3.07;;;2.27;;
4365;SDS011;2196;47.422;9.656;2022-07-05T04:41:37;2.20;;;2.07;;
4365;SDS011;2196;47.422;9.656;2022-07-05T04:44:04;2.73;;;2.57;;
4365;SDS011;2196;47.422;9.656;2022-07-05T04:46:30;2.50;;;2.07;;
4365;SDS011;2196;47.422;9.656;2022-07-05T04:48:59;2.10;;;1.80;;
4365;SDS011;2196;47.422;9.656;2022-07-05T04:51:26;1.97;;;1.77;;
4365;SDS011;2196;47.422;9.656;2022-07-05T04:53:53;5.27;;;1.73;;
4365;SDS011;2196;47.422;9.656;2022-07-05T04:56:21;2.93;;;1.90;;
4365;SDS011;2196;47.422;9.656;2022-07-05T04:58:48;3.03;;;2.70;;
4365;SDS011;2196;47.422;9.656;2022-07-05T05:01:15;2.60;;;2.40;;
4365;SDS011;2196;47.422;9.656;2022-07-05T05:03:43;3.07;;;2.30;;
4365;SDS011;2196;47.422;9.656;2022-07-05T05:06:11;2.40;;;2.30;;
4365;SDS011;2196;47.422;9.656;2022-07-05T05:08:39;2.43;;;2.17;;
4365;SDS011;2196;47.422;9.656;2022-07-05T05:11:06;2.77;;;2.37;;
4365;SDS011;2196;47.422;9.656;2022-07-05T05:13:33;3.57;;;3.00;;
4365;SDS011;2196;47.422;9.656;2022-07-05T05:16:01;3.67;;;3.17;;
4365;SDS011;2196;47.422;9.656;2022-07-05T05:18:28;5.00;;;4.57;;
4365;SDS011;2196;47.422;9.656;2022-07-05T05:20:55;3.70;;;3.30;;
4365;SDS011;2196;47.422;9.656;2022-07-05T05:23:23;2.83;;;2.63;;
4365;SDS011;2196;47.422;9.656;2022-07-05T05:25:50;4.07;;;3.30;;
4365;SDS011;2196;47.422;9.656;2022-07-05T05:28:18;3.63;;;2.93;;
4365;SDS011;2196;47.422;9.656;2022-07-05T05:30:45;3.00;;;2.80;;
4365;SDS011;2196;47.422;9.656;2022-07-05T05:33:12;3.57;;;3.27;;
4365;SDS011;2196;47.422;9.656;2022-07-05T05:35:40;4.73;;;3.13;;
4365;SDS011;2196;47.422;9.656;2022-07-05T05:38:08;3.33;;;2.57;;
4365;SDS011;2196;47.422;9.656;2022-07-05T05:40:36;3.60;;;2.93;;
4365;SDS011;2196;47.422;9.656;2022-07-05T05:43:06;3.20;;;2.53;;
4365;SDS011;2196;47.422;9.656;2022-07-05T05:45:33;2.33;;;2.23;;
4365;SDS011;2196;47.422;9.656;2022-07-05T05:48:00;4.77;;;2.87;;
4365;SDS011;2196;47.422;9.656;2022-07-05T05:50:27;2.30;;;2.10;;
4365;SDS011;2196;47.422;9.656;2022-07-05T05:52:55;3.40;;;2.60;;
4365;SDS011;2196;47.422;9.656;2022-07-05T05:55:22;3.83;;;2.30;;
4365;SDS011;2196;47.422;9.656;2022-07-05T05:57:52;2.37;;;2.27;;
4365;SDS011;2196;47.422;9.656;2022-07-05T06:00:20;4.20;;;2.97;;
4365;SDS011;2196;47.422;9.656;2022-07-05T06:02:47;4.53;;;2.50;;
4365;SDS011;2196;47.422;9.656;2022-07-05T06:05:15;6.00;;;2.90;;
4365;SDS011;2196;47.422;9.656;2022-07-05T06:07:43;2.30;;;2.10;;
4365;SDS011;2196;47.422;9.656;2022-07-05T06:10:15;3.63;;;2.37;;
4365;SDS011;2196;47.422;9.656;2022-07-05T06:12:43;3.00;;;2.37;;
4365;SDS011;2196;47.422;9.656;2022-07-05T06:15:12;3.33;;;3.07;;
4365;SDS011;2196;47.422;9.656;2022-07-05T06:17:40;2.90;;;2.70;;
4365;SDS011;2196;47.422;9.656;2022-07-05T06:20:07;2.77;;;2.57;;
4365;SDS011;2196;47.422;9.656;2022-07-05T06:22:36;2.90;;;2.73;;
4365;SDS011;2196;47.422;9.656;2022-07-05T06:25:04;4.03;;;3.28;;
4365;SDS011;2196;47.422;9.656;2022-07-05T06:27:33;4.10;;;2.80;;
4365;SDS011;2196;47.422;9.656;2022-07-05T06:30:05;3.78;;;3.45;;
4365;SDS011;2196;47.422;9.656;2022-07-05T06:32:35;4.77;;;3.30;;
4365;SDS011;2196;47.422;9.656;2022-07-05T06:35:02;4.03;;;3.00;;
4365;SDS011;2196;47.422;9.656;2022-07-05T06:37:39;3.13;;;2.90;;
4365;SDS011;2196;47.422;9.656;2022-07-05T06:40:08;2.83;;;2.63;;
4365;SDS011;2196;47.422;9.656;2022-07-05T06:42:36;3.27;;;2.80;;
4365;SDS011;2196;47.422;9.656;2022-07-05T06:45:03;3.57;;;3.30;;
4365;SDS011;2196;47.422;9.656;2022-07-05T06:47:31;2.10;;;2.00;;
4365;SDS011;2196;47.422;9.656;2022-07-05T06:50:00;3.70;;;2.77;;
4365;SDS011;2196;47.422;9.656;2022-07-05T06:52:29;5.07;;;2.93;;
4365;SDS011;2196;47.422;9.656;2022-07-05T06:54:56;3.63;;;3.43;;
4365;SDS011;2196;47.422;9.656;2022-07-05T06:57:23;3.40;;;3.07;;
4365;SDS011;2196;47.422;9.656;2022-07-05T06:59:51;3.43;;;2.87;;
4365;SDS011;2196;47.422;9.656;2022-07-05T07:02:18;2.37;;;2.27;;
4365;SDS011;2196;47.422;9.656;2022-07-05T07:04:45;3.17;;;2.23;;
4365;SDS011;2196;47.422;9.656;2022-07-05T07:07:14;2.13;;;1.90;;
4365;SDS011;2196;47.422;9.656;2022-07-05T07:09:58;2.13;;;1.97;;
4365;SDS011;2196;47.422;9.656;2022-07-05T07:12:25;3.33;;;1.40;;
4365;SDS011;2196;47.422;9.656;2022-07-05T07:14:52;2.43;;;2.17;;
4365;SDS011;2196;47.422;9.656;2022-07-05T07:17:19;1.57;;;1.47;;
4365;SDS011;2196;47.422;9.656;2022-07-05T07:19:46;3.93;;;1.73;;
4365;SDS011;2196;47.422;9.656;2022-07-05T07:22:15;1.40;;;1.40;;
4365;SDS011;2196;47.422;9.656;2022-07-05T07:24:42;1.93;;;1.73;;
4365;SDS011;2196;47.422;9.656;2022-07-05T07:27:09;1.67;;;1.67;;
4365;SDS011;2196;47.422;9.656;2022-07-05T07:29:36;3.30;;;2.07;;
4365;SDS011;2196;47.422;9.656;2022-07-05T07:32:05;1.73;;;1.63;;
4365;SDS011;2196;47.422;9.656;2022-07-05T07:34:33;2.17;;;1.93;;
4365;SDS011;2196;47.422;9.656;2022-07-05T07:37:02;3.93;;;1.67;;
4365;SDS011;2196;47.422;9.656;2022-07-05T07:39:31;1.33;;;1.23;;
4365;SDS011;2196;47.422;9.656;2022-07-05T07:41:58;1.98;;;1.88;;
4365;SDS011;2196;47.422;9.656;2022-07-05T07:44:25;2.88;;;1.30;;
4365;SDS011;2196;47.422;9.656;2022-07-05T07:46:52;2.60;;;1.55;;
4365;SDS011;2196;47.422;9.656;2022-07-05T07:49:20;1.50;;;1.50;;
4365;SDS011;2196;47.422;9.656;2022-07-05T07:51:47;2.17;;;2.03;;
4365;SDS011;2196;47.422;9.656;2022-07-05T07:54:14;2.58;;;2.47;;
4365;SDS011;2196;47.422;9.656;2022-07-05T07:56:42;2.13;;;2.03;;
4365;SDS011;2196;47.422;9.656;2022-07-05T07:59:09;2.20;;;1.20;;
4365;SDS011;2196;47.422;9.656;2022-07-05T08:01:36;2.38;;;2.05;;
4365;SDS011;2196;47.422;9.656;2022-07-05T08:04:03;1.45;;;1.45;;
4365;SDS011;2196;47.422;9.656;2022-07-05T08:06:31;1.98;;;1.83;;
4365;SDS011;2196;47.422;9.656;2022-07-05T08:08:57;9.82;;;2.00;;
4365;SDS011;2196;47.422;9.656;2022-07-05T08:11:24;3.97;;;1.80;;
4365;SDS011;2196;47.422;9.656;2022-07-05T08:13:53;1.55;;;1.45;;
4365;SDS011;2196;47.422;9.656;2022-07-05T08:16:20;1.20;;;1.20;;
4365;SDS011;2196;47.422;9.656;2022-07-05T08:18:47;2.35;;;1.85;;
4365;SDS011;2196;47.422;9.656;2022-07-05T08:21:31;1.67;;;1.30;;
4365;SDS011;2196;47.422;9.656;2022-07-05T08:24:00;2.20;;;1.23;;
4365;SDS011;2196;47.422;9.656;2022-07-05T08:26:29;1.67;;;1.67;;
4365;SDS011;2196;47.422;9.656;2022-07-05T08:28:58;2.90;;;2.78;;
4365;SDS011;2196;47.422;9.656;2022-07-05T08:31:27;2.08;;;1.98;;
4365;SDS011;2196;47.422;9.656;2022-07-05T08:33:55;2.13;;;2.03;;
4365;SDS011;2196;47.422;9.656;2022-07-05T08:36:22;2.35;;;2.25;;
4365;SDS011;2196;47.422;9.656;2022-07-05T08:38:49;2.13;;;1.90;;
4365;SDS011;2196;47.422;9.656;2022-07-05T08:41:17;1.83;;;1.83;;
4365;SDS011;2196;47.422;9.656;2022-07-05T08:43:46;2.58;;;2.53;;
4365;SDS011;2196;47.422;9.656;2022-07-05T08:46:15;2.38;;;2.17;;
4365;SDS011;2196;47.422;9.656;2022-07-05T08:48:48;1.85;;;1.75;;
4365;SDS011;2196;47.422;9.656;2022-07-05T08:51:17;1.92;;;1.92;;
4365;SDS011;2196;47.422;9.656;2022-07-05T08:53:46;1.90;;;1.80;;
4365;SDS011;2196;47.422;9.656;2022-07-05T08:56:14;1.85;;;1.60;;
4365;SDS011;2196;47.422;9.656;2022-07-05T08:58:42;2.70;;;1.65;;
4365;SDS011;2196;47.422;9.656;2022-07-05T09:01:09;2.30;;;2.10;;
4365;SDS011;2196;47.422;9.656;2022-07-05T09:03:41;1.45;;;1.45;;
4365;SDS011;2196;47.422;9.656;2022-07-05T09:06:10;2.88;;;1.90;;
4365;SDS011;2196;47.422;9.656;2022-07-05T09:08:38;1.52;;;1.50;;
4365;SDS011;2196;47.422;9.656;2022-07-05T09:11:06;2.08;;;1.98;;
4365;SDS011;2196;47.422;9.656;2022-07-05T09:13:35;4.75;;;2.10;;
4365;SDS011;2196;47.422;9.656;2022-07-05T09:16:04;2.63;;;2.40;;
4365;SDS011;2196;47.422;9.656;2022-07-05T09:18:42;2.38;;;2.30;;
4365;SDS011;2196;47.422;9.656;2022-07-05T09:21:11;1.70;;;1.60;;
4365;SDS011;2196;47.422;9.656;2022-07-05T09:23:42;1.30;;;1.10;;
4365;SDS011;2196;47.422;9.656;2022-07-05T09:26:09;1.50;;;1.45;;
4365;SDS011;2196;47.422;9.656;2022-07-05T09:28:36;2.10;;;2.00;;
4365;SDS011;2196;47.422;9.656;2022-07-05T09:31:04;2.70;;;1.50;;
4365;SDS011;2196;47.422;9.656;2022-07-05T09:33:31;1.17;;;1.17;;
4365;SDS011;2196;47.422;9.656;2022-07-05T09:35:59;1.73;;;1.63;;
4365;SDS011;2196;47.422;9.656;2022-07-05T09:38:27;1.35;;;1.27;;
4365;SDS011;2196;47.422;9.656;2022-07-05T09:40:55;3.90;;;2.28;;
4365;SDS011;2196;47.422;9.656;2022-07-05T09:43:23;1.95;;;1.85;;
4365;SDS011;2196;47.422;9.656;2022-07-05T09:45:55;2.30;;;2.20;;
4365;SDS011;2196;47.422;9.656;2022-07-05T09:48:24;1.63;;;1.50;;
4365;SDS011;2196;47.422;9.656;2022-07-05T09:50:51;2.10;;;1.75;;
4365;SDS011;2196;47.422;9.656;2022-07-05T09:53:19;1.60;;;1.50;;
4365;SDS011;2196;47.422;9.656;2022-07-05T09:55:59;2.15;;;2.05;;
4365;SDS011;2196;47.422;9.656;2022-07-05T09:58:28;1.83;;;1.73;;
4365;SDS011;2196;47.422;9.656;2022-07-05T10:00:55;2.00;;;1.77;;
4365;SDS011;2196;47.422;9.656;2022-07-05T10:03:22;6.03;;;3.00;;
4365;SDS011;2196;47.422;9.656;2022-07-05T10:05:49;3.03;;;2.22;;
4365;SDS011;2196;47.422;9.656;2022-07-05T10:08:16;2.80;;;2.53;;
4365;SDS011;2196;47.422;9.656;2022-07-05T10:10:47;2.28;;;2.03;;
4365;SDS011;2196;47.422;9.656;2022-07-05T10:13:17;2.30;;;1.80;;
4365;SDS011;2196;47.422;9.656;2022-07-05T10:15:44;2.65;;;1.55;;
4365;SDS011;2196;47.422;9.656;2022-07-05T10:18:12;1.83;;;1.77;;
4365;SDS011;2196;47.422;9.656;2022-07-05T10:20:43;1.92;;;1.92;;
4365;SDS011;2196;47.422;9.656;2022-07-05T10:23:11;1.67;;;1.50;;
4365;SDS011;2196;47.422;9.656;2022-07-05T10:25:40;1.40;;;1.40;;
4365;SDS011;2196;47.422;9.656;2022-07-05T10:28:10;2.67;;;1.60;;
4365;SDS011;2196;47.422;9.656;2022-07-05T10:30:37;2.53;;;2.42;;
4365;SDS011;2196;47.422;9.656;2022-07-05T10:33:05;2.17;;;2.15;;
4365;SDS011;2196;47.422;9.656;2022-07-05T10:35:33;2.40;;;2.20;;
4365;SDS011;2196;47.422;9.656;2022-07-05T10:38:01;2.42;;;1.90;;
4365;SDS011;2196;47.422;9.656;2022-07-05T10:40:30;5.82;;;2.65;;
4365;SDS011;2196;47.422;9.656;2022-07-05T10:43:00;2.42;;;2.38;;
4365;SDS011;2196;47.422;9.656;2022-07-05T10:45:31;1.85;;;1.75;;
4365;SDS011;2196;47.422;9.656;2022-07-05T10:48:18;2.20;;;2.10;;
4365;SDS011;2196;47.422;9.656;2022-07-05T10:50:46;1.85;;;1.75;;
4365;SDS011;2196;47.422;9.656;2022-07-05T10:53:17;1.80;;;1.80;;
4365;SDS011;2196;47.422;9.656;2022-07-05T10:55:55;2.38;;;1.83;;
4365;SDS011;2196;47.422;9.656;2022-07-05T10:58:24;2.08;;;1.98;;
4365;SDS011;2196;47.422;9.656;2022-07-05T11:04:26;2.60;;;2.40;;
4365;SDS011;2196;47.422;9.656;2022-07-05T11:06:57;1.65;;;1.65;;
4365;SDS011;2196;47.422;9.656;2022-07-05T11:09:24;2.08;;;2.05;;
4365;SDS011;2196;47.422;9.656;2022-07-05T11:12:05;3.10;;;2.28;;
4365;SDS011;2196;47.422;9.656;2022-07-05T11:14:34;2.70;;;2.60;;
4365;SDS011;2196;47.422;9.656;2022-07-05T11:17:16;2.35;;;2.20;;
4365;SDS011;2196;47.422;9.656;2022-07-05T11:20:06;2.55;;;2.40;;
4365;SDS011;2196;47.422;9.656;2022-07-05T11:22:36;2.53;;;2.43;;
4365;SDS011;2196;47.422;9.656;2022-07-05T11:25:04;2.77;;;2.13;;
4365;SDS011;2196;47.422;9.656;2022-07-05T11:27:33;1.90;;;1.90;;
4365;SDS011;2196;47.422;9.656;2022-07-05T11:30:01;2.35;;;1.70;;
4365;SDS011;2196;47.422;9.656;2022-07-05T11:32:36;1.60;;;1.60;;
4365;SDS011;2196;47.422;9.656;2022-07-05T11:35:17;1.60;;;1.27;;
4365;SDS011;2196;47.422;9.656;2022-07-05T11:37:56;1.58;;;1.48;;
4365;SDS011;2196;47.422;9.656;2022-07-05T11:40:28;1.20;;;1.20;;
4365;SDS011;2196;47.422;9.656;2022-07-05T11:42:58;1.02;;;1.02;;
4365;SDS011;2196;47.422;9.656;2022-07-05T11:45:27;2.75;;;1.80;;
4365;SDS011;2196;47.422;9.656;2022-07-05T11:47:55;1.83;;;1.27;;
4365;SDS011;2196;47.422;9.656;2022-07-05T11:50:28;1.38;;;1.35;;
4365;SDS011;2196;47.422;9.656;2022-07-05T11:52:57;1.95;;;1.50;;
4365;SDS011;2196;47.422;9.656;2022-07-05T11:55:25;1.67;;;1.15;;
4365;SDS011;2196;47.422;9.656;2022-07-05T11:57:54;2.33;;;1.65;;
4365;SDS011;2196;47.422;9.656;2022-07-05T12:00:28;1.52;;;1.48;;
4365;SDS011;2196;47.422;9.656;2022-07-05T12:02:57;1.80;;;1.70;;
4365;SDS011;2196;47.422;9.656;2022-07-05T12:05:30;1.55;;;1.55;;
4365;SDS011;2196;47.422;9.656;2022-07-05T12:07:57;1.73;;;1.63;;
4365;SDS011;2196;47.422;9.656;2022-07-05T12:10:25;2.60;;;2.15;;
4365;SDS011;2196;47.422;9.656;2022-07-05T12:13:09;2.25;;;1.85;;
4365;SDS011;2196;47.422;9.656;2022-07-05T12:15:37;1.75;;;1.65;;
4365;SDS011;2196;47.422;9.656;2022-07-05T12:18:05;3.05;;;1.50;;
4365;SDS011;2196;47.422;9.656;2022-07-05T12:20:35;1.52;;;1.52;;
4365;SDS011;2196;47.422;9.656;2022-07-05T12:23:04;2.45;;;1.90;;
4365;SDS011;2196;47.422;9.656;2022-07-05T12:25:32;1.67;;;1.67;;
4365;SDS011;2196;47.422;9.656;2022-07-05T12:28:01;2.25;;;1.80;;
4365;SDS011;2196;47.422;9.656;2022-07-05T12:30:32;1.60;;;1.60;;
4365;SDS011;2196;47.422;9.656;2022-07-05T12:32:59;4.32;;;1.50;;
4365;SDS011;2196;47.422;9.656;2022-07-05T12:35:27;1.40;;;1.40;;
4365;SDS011;2196;47.422;9.656;2022-07-05T12:38:07;1.40;;;1.30;;
4365;SDS011;2196;47.422;9.656;2022-07-05T12:40:40;2.50;;;1.30;;
4365;SDS011;2196;47.422;9.656;2022-07-05T12:43:08;1.90;;;1.70;;
4365;SDS011;2196;47.422;9.656;2022-07-05T12:45:36;1.55;;;1.55;;
4365;SDS011;2196;47.422;9.656;2022-07-05T12:48:05;1.60;;;1.60;;
4365;SDS011;2196;47.422;9.656;2022-07-05T12:50:47;2.40;;;1.65;;
4365;SDS011;2196;47.422;9.656;2022-07-05T12:53:16;1.38;;;1.38;;
4365;SDS011;2196;47.422;9.656;2022-07-05T12:56:01;0.90;;;0.90;;
4365;SDS011;2196;47.422;9.656;2022-07-05T12:58:47;1.40;;;1.40;;
4365;SDS011;2196;47.422;9.656;2022-07-05T13:01:22;1.80;;;1.40;;
4365;SDS011;2196;47.422;9.656;2022-07-05T13:04:03;2.58;;;1.13;;
4365;SDS011;2196;47.422;9.656;2022-07-05T13:06:44;1.50;;;1.20;;
4365;SDS011;2196;47.422;9.656;2022-07-05T13:09:13;1.05;;;0.80;;
4365;SDS011;2196;47.422;9.656;2022-07-05T13:11:42;1.42;;;1.33;;
4365;SDS011;2196;47.422;9.656;2022-07-05T13:14:10;1.92;;;1.83;;
4365;SDS011;2196;47.422;9.656;2022-07-05T13:16:37;1.27;;;1.00;;
4365;SDS011;2196;47.422;9.656;2022-07-05T13:19:07;1.10;;;0.95;;
4365;SDS011;2196;47.422;9.656;2022-07-05T13:21:35;0.90;;;0.85;;
4365;SDS011;2196;47.422;9.656;2022-07-05T13:24:04;1.63;;;0.70;;
4365;SDS011;2196;47.422;9.656;2022-07-05T13:26:31;1.15;;;1.15;;
4365;SDS011;2196;47.422;9.656;2022-07-05T13:28:58;1.55;;;0.85;;
4365;SDS011;2196;47.422;9.656;2022-07-05T13:31:25;1.20;;;1.20;;
4365;SDS011;2196;47.422;9.656;2022-07-05T13:33:55;1.23;;;1.03;;
4365;SDS011;2196;47.422;9.656;2022-07-05T13:36:23;0.80;;;0.80;;
4365;SDS011;2196;47.422;9.656;2022-07-05T13:38:50;1.65;;;0.70;;
4365;SDS011;2196;47.422;9.656;2022-07-05T13:41:18;0.68;;;0.68;;
4365;SDS011;2196;47.422;9.656;2022-07-05T13:43:45;0.65;;;0.65;;
4365;SDS011;2196;47.422;9.656;2022-07-05T13:46:12;0.93;;;0.77;;
4365;SDS011;2196;47.422;9.656;2022-07-05T13:48:39;1.08;;;0.98;;
4365;SDS011;2196;47.422;9.656;2022-07-05T13:51:06;0.75;;;0.75;;
4365;SDS011;2196;47.422;9.656;2022-07-05T13:53:33;1.67;;;0.90;;
4365;SDS011;2196;47.422;9.656;2022-07-05T13:56:01;0.68;;;0.68;;
4365;SDS011;2196;47.422;9.656;2022-07-05T13:58:31;0.93;;;0.88;;
4365;SDS011;2196;47.422;9.656;2022-07-05T14:00:58;2.17;;;0.80;;
4365;SDS011;2196;47.422;9.656;2022-07-05T14:03:25;1.27;;;1.15;;
4365;SDS011;2196;47.422;9.656;2022-07-05T14:05:53;0.68;;;0.68;;
4365;SDS011;2196;47.422;9.656;2022-07-05T14:08:20;1.23;;;0.80;;
4365;SDS011;2196;47.422;9.656;2022-07-05T14:10:47;0.93;;;0.87;;
4365;SDS011;2196;47.422;9.656;2022-07-05T14:13:17;0.85;;;0.85;;
4365;SDS011;2196;47.422;9.656;2022-07-05T14:15:46;2.27;;;1.00;;
4365;SDS011;2196;47.422;9.656;2022-07-05T14:18:13;0.98;;;0.98;;
4365;SDS011;2196;47.422;9.656;2022-07-05T14:20:40;1.48;;;1.33;;
4365;SDS011;2196;47.422;9.656;2022-07-05T14:23:08;0.70;;;0.70;;
4365;SDS011;2196;47.422;9.656;2022-07-05T14:25:35;1.05;;;0.80;;
4365;SDS011;2196;47.422;9.656;2022-07-05T14:28:03;0.85;;;0.85;;
4365;SDS011;2196;47.422;9.656;2022-07-05T14:30:32;1.05;;;0.80;;
4365;SDS011;2196;47.422;9.656;2022-07-05T14:33:01;0.85;;;0.80;;
4365;SDS011;2196;47.422;9.656;2022-07-05T14:35:28;1.35;;;0.80;;
4365;SDS011;2196;47.422;9.656;2022-07-05T14:37:55;1.05;;;0.77;;
4365;SDS011;2196;47.422;9.656;2022-07-05T14:40:23;0.68;;;0.68;;
4365;SDS011;2196;47.422;9.656;2022-07-05T14:42:50;4.57;;;1.00;;
4365;SDS011;2196;47.422;9.656;2022-07-05T14:45:18;0.90;;;0.80;;
4365;SDS011;2196;47.422;9.656;2022-07-05T14:47:45;0.63;;;0.63;;
4365;SDS011;2196;47.422;9.656;2022-07-05T14:50:14;1.38;;;0.60;;
4365;SDS011;2196;47.422;9.656;2022-07-05T14:52:41;0.70;;;0.70;;
4365;SDS011;2196;47.422;9.656;2022-07-05T14:55:08;1.40;;;1.10;;
4365;SDS011;2196;47.422;9.656;2022-07-05T14:57:36;1.10;;;0.80;;
4365;SDS011;2196;47.422;9.656;2022-07-05T15:00:03;0.80;;;0.80;;
4365;SDS011;2196;47.422;9.656;2022-07-05T15:02:32;1.13;;;0.60;;
4365;SDS011;2196;47.422;9.656;2022-07-05T15:05:00;0.70;;;0.70;;
4365;SDS011;2196;47.422;9.656;2022-07-05T15:07:29;0.60;;;0.60;;
4365;SDS011;2196;47.422;9.656;2022-07-05T15:09:56;0.80;;;0.80;;
4365;SDS011;2196;47.422;9.656;2022-07-05T15:12:23;0.70;;;0.70;;
4365;SDS011;2196;47.422;9.656;2022-07-05T15:14:50;0.53;;;0.40;;
4365;SDS011;2196;47.422;9.656;2022-07-05T15:17:17;0.77;;;0.77;;
4365;SDS011;2196;47.422;9.656;2022-07-05T15:19:44;0.50;;;0.50;;
4365;SDS011;2196;47.422;9.656;2022-07-05T15:22:10;1.60;;;0.50;;
4365;SDS011;2196;47.422;9.656;2022-07-05T15:24:39;0.40;;;0.40;;
4365;SDS011;2196;47.422;9.656;2022-07-05T15:27:06;0.80;;;0.60;;